createdAt,value
2023-02-12T00:01:32.803Z,102307.38
2023-02-12T00:03:59.463Z,102316.53
2023-02-12T00:06:26.544Z,102317.41
2023-02-12T00:08:55.053Z,102312.34
2023-02-12T00:11:26.697Z,102326.72
2023-02-12T00:13:55.856Z,102334.94
2023-02-12T00:16:25.755Z,102333.16
2023-02-12T00:18:54.696Z,102354.78
2023-02-12T00:21:22.658Z,102334.19
2023-02-12T00:23:49.959Z,102332.91
2023-02-12T00:26:19.042Z,102280.06
2023-02-12T00:28:45.838Z,102279.81
2023-02-12T00:31:17.891Z,102286.31
2023-02-12T00:33:45.039Z,102286.31
2023-02-12T00:36:17.078Z,102286.25
2023-02-12T00:38:43.826Z,102293.25
2023-02-12T00:41:11.286Z,102269.22
2023-02-12T00:43:38.023Z,102263.53
2023-02-12T00:46:05.764Z,102265.25
2023-02-12T00:48:33.571Z,102267.16
2023-02-12T00:51:00.419Z,102256.53
2023-02-12T00:53:27.529Z,102259.25
2023-02-12T00:55:54.546Z,102265.34
2023-02-12T00:58:21.935Z,102260.09
2023-02-12T01:00:48.655Z,102262.69
2023-02-12T01:03:15.906Z,102258.78
2023-02-12T01:05:43.357Z,102268.00
2023-02-12T01:08:13.495Z,102268.22
2023-02-12T01:10:40.870Z,102267.06
2023-02-12T01:13:07.573Z,102274.44
2023-02-12T01:15:34.208Z,102279.63
2023-02-12T01:18:00.888Z,102275.16
2023-02-12T01:20:27.678Z,102276.78
2023-02-12T01:22:54.363Z,102277.63
2023-02-12T01:25:21.198Z,102281.25
2023-02-12T01:27:48.373Z,102275.75
2023-02-12T01:30:16.082Z,102278.66
2023-02-12T01:32:43.988Z,102268.88
2023-02-12T01:35:10.697Z,102280.66
2023-02-12T01:37:38.128Z,102268.94
2023-02-12T01:40:08.019Z,102283.16
2023-02-12T01:42:35.364Z,102282.41
2023-02-12T01:45:14.105Z,102272.19
2023-02-12T01:47:42.460Z,102272.34
2023-02-12T01:50:13.815Z,102273.34
2023-02-12T01:52:43.700Z,102279.63
2023-02-12T01:55:11.662Z,102284.09
2023-02-12T01:57:42.790Z,102260.59
2023-02-12T02:00:14.321Z,102256.09
2023-02-12T02:02:44.976Z,102244.38
2023-02-12T02:05:15.443Z,102254.53
2023-02-12T02:07:44.093Z,102252.59
2023-02-12T02:10:11.378Z,102257.13
2023-02-12T02:12:58.041Z,102260.81
2023-02-12T02:15:30.590Z,102259.16
2023-02-12T02:18:02.659Z,102260.19
2023-02-12T02:20:35.405Z,102257.25
2023-02-12T02:23:11.127Z,102262.69
2023-02-12T02:26:10.143Z,102262.59
2023-02-12T02:28:39.746Z,102258.19
2023-02-12T02:31:21.679Z,102255.06
2023-02-12T02:33:56.825Z,102260.44
2023-02-12T02:36:59.837Z,102254.31
2023-02-12T02:39:39.329Z,102250.94
2023-02-12T02:42:09.856Z,102254.31
2023-02-12T02:45:02.127Z,102248.97
2023-02-12T02:47:54.303Z,102250.19
2023-02-12T02:50:25.013Z,102246.13
2023-02-12T02:53:03.611Z,102242.56
2023-02-12T02:55:38.907Z,102237.66
2023-02-12T02:58:32.305Z,102243.78
2023-02-12T03:01:11.522Z,102247.50
2023-02-12T03:03:38.087Z,102247.41
2023-02-12T03:06:11.054Z,102243.97
2023-02-12T03:08:50.977Z,102249.47
2023-02-12T03:11:22.024Z,102243.13
2023-02-12T03:13:56.079Z,102241.41
2023-02-12T03:16:36.341Z,102248.69
2023-02-12T03:19:06.818Z,102243.75
2023-02-12T03:21:40.216Z,102251.13
2023-02-12T03:24:15.523Z,102254.69
2023-02-12T03:26:50.669Z,102241.88
2023-02-12T03:29:17.351Z,102242.94
2023-02-12T03:32:16.299Z,102242.94
2023-02-12T03:35:25.494Z,102236.69
2023-02-12T03:38:05.802Z,102237.50
2023-02-12T03:40:56.426Z,102241.19
2023-02-12T03:43:27.788Z,102240.00
2023-02-12T03:46:01.804Z,102238.22
2023-02-12T03:48:34.826Z,102238.44
2023-02-12T03:51:12.530Z,102237.44
2023-02-12T03:53:39.201Z,102239.31
2023-02-12T03:56:11.895Z,102244.00
2023-02-12T03:58:41.294Z,102244.19
2023-02-12T04:01:08.612Z,102245.00
2023-02-12T04:03:35.613Z,102253.16
2023-02-12T04:06:02.254Z,102245.06
2023-02-12T04:08:30.994Z,102254.31
2023-02-12T04:11:19.496Z,102251.69
2023-02-12T04:14:17.957Z,102250.06
2023-02-12T04:16:54.254Z,102247.25
2023-02-12T04:19:31.924Z,102253.56
2023-02-12T04:22:17.781Z,102256.41
2023-02-12T04:24:55.976Z,102268.09
2023-02-12T04:27:29.484Z,102262.72
2023-02-12T04:30:06.306Z,102264.63
2023-02-12T04:33:03.811Z,102264.63
2023-02-12T04:35:36.190Z,102262.72
2023-02-12T04:38:12.578Z,102262.63
2023-02-12T04:40:41.401Z,102266.28
2023-02-12T04:43:08.655Z,102276.31
2023-02-12T04:45:36.568Z,102277.44
2023-02-12T04:48:04.795Z,102289.25
2023-02-12T04:50:42.740Z,102285.81
2023-02-12T04:53:10.515Z,102284.06
2023-02-12T04:55:37.466Z,102297.34
2023-02-12T04:58:04.155Z,102301.00
2023-02-12T05:00:30.875Z,102298.31
2023-02-12T05:02:57.658Z,102300.66
2023-02-12T05:05:24.456Z,102310.47
2023-02-12T05:07:51.636Z,102304.13
2023-02-12T05:10:18.770Z,102310.25
2023-02-12T05:12:45.544Z,102305.88
2023-02-12T05:15:12.417Z,102303.81
2023-02-12T05:17:39.143Z,102309.31
2023-02-12T05:20:06.334Z,102307.63
2023-02-12T05:22:33.108Z,102304.09
2023-02-12T05:24:59.863Z,102305.88
2023-02-12T05:27:26.543Z,102311.94
2023-02-12T05:29:53.413Z,102312.94
2023-02-12T05:32:20.150Z,102307.53
2023-02-12T05:34:46.839Z,102310.22
2023-02-12T05:37:13.488Z,102304.66
2023-02-12T05:39:40.254Z,102311.81
2023-02-12T05:42:06.923Z,102314.69
2023-02-12T05:44:33.727Z,102316.47
2023-02-12T05:47:00.428Z,102310.16
2023-02-12T05:49:27.191Z,102319.09
2023-02-12T05:51:53.811Z,102314.53
2023-02-12T05:54:20.511Z,102317.28
2023-02-12T05:56:47.943Z,102320.84
2023-02-12T05:59:22.390Z,102324.38
2023-02-12T06:01:51.561Z,102324.38
2023-02-12T06:04:23.908Z,102323.56
2023-02-12T06:06:55.802Z,102328.03
2023-02-12T06:09:23.652Z,102322.69
2023-02-12T06:11:50.344Z,102347.88
2023-02-12T06:14:19.383Z,102305.34
2023-02-12T06:16:48.130Z,102265.81
2023-02-12T06:19:15.101Z,102258.50
2023-02-12T06:21:42.051Z,102246.88
2023-02-12T06:24:11.390Z,102246.75
2023-02-12T06:26:38.081Z,102231.41
2023-02-12T06:29:04.970Z,102234.19
2023-02-12T06:31:34.513Z,102228.63
2023-02-12T06:34:04.690Z,102224.94
2023-02-12T06:36:31.607Z,102225.75
2023-02-12T06:38:58.446Z,102230.28
2023-02-12T06:41:25.126Z,102231.00
2023-02-12T06:43:51.899Z,102232.69
2023-02-12T06:46:18.702Z,102234.56
2023-02-12T06:48:45.545Z,102232.81
2023-02-12T06:51:18.170Z,102240.69
2023-02-12T06:53:45.229Z,102247.22
2023-02-12T06:56:13.936Z,102254.31
2023-02-12T06:58:44.399Z,102239.84
2023-02-12T07:01:18.013Z,102245.06
2023-02-12T07:03:49.265Z,102255.97
2023-02-12T07:06:16.122Z,102256.97
2023-02-12T07:08:43.067Z,102260.44
2023-02-12T07:11:12.406Z,102246.22
2023-02-12T07:13:41.808Z,102252.41
2023-02-12T07:16:12.492Z,102246.00
2023-02-12T07:18:39.827Z,102246.00
2023-02-12T07:21:08.182Z,102244.13
2023-02-12T07:23:35.786Z,102244.31
2023-02-12T07:26:05.329Z,102244.31
2023-02-12T07:28:33.891Z,102246.78
2023-02-12T07:31:07.069Z,102241.41
2023-02-12T07:33:33.796Z,102244.06
2023-02-12T07:36:01.540Z,102231.38
2023-02-12T07:38:29.336Z,102237.53
2023-02-12T07:40:58.813Z,102240.22
2023-02-12T07:43:25.483Z,102248.59
2023-02-12T07:45:52.209Z,102248.44
2023-02-12T07:48:19.305Z,102246.56
2023-02-12T07:50:46.048Z,102248.34
2023-02-12T07:53:12.682Z,102248.34
2023-02-12T07:55:43.408Z,102253.66
2023-02-12T07:58:17.738Z,102252.50
2023-02-12T08:00:44.411Z,102253.31
2023-02-12T08:03:11.091Z,102254.13
2023-02-12T08:05:37.760Z,102242.41
2023-02-12T08:08:04.436Z,102251.28
2023-02-12T08:10:32.451Z,102241.19
2023-02-12T08:12:59.200Z,102239.91
2023-02-12T08:15:25.936Z,102239.97
2023-02-12T08:17:52.626Z,102236.44
2023-02-12T08:20:19.363Z,102237.06
2023-02-12T08:22:45.972Z,102237.06
2023-02-12T08:25:12.766Z,102234.91
2023-02-12T08:27:41.974Z,102234.22
2023-02-12T08:30:09.117Z,102229.75
2023-02-12T08:32:35.827Z,102224.25
2023-02-12T08:35:02.502Z,102233.03
2023-02-12T08:37:29.227Z,102231.97
2023-02-12T08:39:55.834Z,102224.72
2023-02-12T08:42:25.644Z,102228.09
2023-02-12T08:44:52.254Z,102223.47
2023-02-12T08:47:18.903Z,102225.09
2023-02-12T08:49:45.637Z,102223.13
2023-02-12T08:52:12.376Z,102224.78
2023-02-12T08:54:39.087Z,102224.41
2023-02-12T08:57:05.713Z,102221.88
2023-02-12T08:59:32.532Z,102215.13
2023-02-12T09:02:00.540Z,102221.25
2023-02-12T09:04:29.004Z,102216.47
2023-02-12T09:06:56.032Z,102220.81
2023-02-12T09:09:23.135Z,102235.91
2023-02-12T09:11:49.951Z,102232.84
2023-02-12T09:14:18.782Z,102232.97
2023-02-12T09:16:45.677Z,102244.53
2023-02-12T09:19:13.879Z,102259.94
2023-02-12T09:21:40.859Z,102262.38
2023-02-12T09:24:08.467Z,102264.53
2023-02-12T09:26:35.305Z,102263.59
2023-02-12T09:29:03.518Z,102267.72
2023-02-12T09:31:32.091Z,102269.94
2023-02-12T09:34:02.348Z,102266.53
2023-02-12T09:36:29.651Z,102266.34
2023-02-12T09:38:59.203Z,102271.69
2023-02-12T09:41:47.837Z,102271.19
2023-02-12T09:44:27.669Z,102274.84
2023-02-12T09:47:18.414Z,102276.91
2023-02-12T09:50:17.725Z,102278.63
2023-02-12T09:52:44.855Z,102280.84
2023-02-12T09:55:16.242Z,102277.91
2023-02-12T09:57:44.442Z,102289.25
2023-02-12T10:00:31.550Z,102289.59
2023-02-12T10:03:05.553Z,102354.94
2023-02-12T10:05:41.179Z,102360.75
2023-02-12T10:08:24.642Z,102360.88
2023-02-12T10:11:20.880Z,102369.25
2023-02-12T10:14:12.207Z,102356.00
2023-02-12T10:17:00.769Z,102354.66
2023-02-12T10:19:39.560Z,102359.69
2023-02-12T10:22:18.368Z,102362.66
2023-02-12T10:25:03.462Z,102364.22
2023-02-12T10:27:52.083Z,102366.75
2023-02-12T10:30:23.966Z,102384.25
2023-02-12T10:33:05.424Z,102373.00
2023-02-12T10:35:33.216Z,102391.75
2023-02-12T10:38:07.789Z,102396.22
2023-02-12T10:40:38.344Z,102396.97
2023-02-12T10:43:05.305Z,102415.97
2023-02-12T10:45:40.170Z,102420.44
2023-02-12T10:48:21.621Z,102420.03
2023-02-12T10:51:07.478Z,102420.59
2023-02-12T10:53:45.142Z,102421.28
2023-02-12T10:56:11.927Z,102432.81
2023-02-12T10:58:50.073Z,102446.69
2023-02-12T11:01:29.934Z,102448.44
2023-02-12T11:03:58.948Z,102447.69
2023-02-12T11:06:29.072Z,102459.94
2023-02-12T11:08:59.953Z,102471.06
2023-02-12T11:11:30.750Z,102479.22
2023-02-12T11:14:21.229Z,102483.38
2023-02-12T11:17:00.328Z,102474.75
2023-02-12T11:19:29.770Z,102483.50
2023-02-12T11:22:18.721Z,102493.69
2023-02-12T11:24:47.153Z,102496.69
2023-02-12T11:27:16.844Z,102505.94
2023-02-12T11:29:45.313Z,102499.03
2023-02-12T11:32:20.462Z,102492.59
2023-02-12T11:35:17.902Z,102499.47
2023-02-12T11:37:46.670Z,102518.31
2023-02-12T11:40:24.288Z,102525.16
2023-02-12T11:43:02.031Z,102531.66
2023-02-12T11:45:35.518Z,102532.81
2023-02-12T11:48:02.995Z,102526.19
2023-02-12T11:50:33.421Z,102529.13
2023-02-12T11:53:09.854Z,102533.72
2023-02-12T11:55:39.955Z,102537.84
2023-02-12T11:58:20.629Z,102528.53
2023-02-12T12:00:54.016Z,102538.84
2023-02-12T12:03:26.979Z,102556.16
2023-02-12T12:06:02.453Z,102545.66
2023-02-12T12:08:38.774Z,102542.16
2023-02-12T12:11:12.809Z,102504.81
2023-02-12T12:14:22.598Z,102487.09
2023-02-12T12:17:34.041Z,102493.84
2023-02-12T12:20:17.725Z,102490.19
2023-02-12T12:22:55.347Z,102482.94
2023-02-12T12:25:31.345Z,102482.22
2023-02-12T12:28:08.142Z,102480.59
2023-02-12T12:30:45.957Z,102482.00
2023-02-12T12:33:46.542Z,102481.19
2023-02-12T12:36:13.241Z,102479.63
2023-02-12T12:39:08.522Z,102473.13
2023-02-12T12:42:07.157Z,102481.13
2023-02-12T12:44:51.790Z,102486.78
2023-02-12T12:47:36.408Z,102502.38
2023-02-12T12:50:12.386Z,102509.03
2023-02-12T12:52:45.094Z,102508.16
2023-02-12T12:55:48.684Z,102507.34
2023-02-12T12:58:41.420Z,102492.69
2023-02-12T13:01:53.476Z,102496.19
2023-02-12T13:04:42.190Z,102491.09
2023-02-12T13:07:33.594Z,102491.88
2023-02-12T13:10:47.191Z,102483.44
2023-02-12T13:13:29.333Z,102492.03
2023-02-12T13:16:18.325Z,102489.16
2023-02-12T13:19:15.747Z,102482.28
2023-02-12T13:21:58.813Z,102479.09
2023-02-12T13:24:30.977Z,102482.88
2023-02-12T13:27:02.102Z,102479.22
2023-02-12T13:29:38.645Z,102482.22
2023-02-12T13:32:13.980Z,102480.00
2023-02-12T13:34:45.218Z,102479.63
2023-02-12T13:37:25.493Z,102486.16
2023-02-12T13:39:53.137Z,102486.28
2023-02-12T13:42:50.856Z,102481.69
2023-02-12T13:45:34.873Z,102480.88
2023-02-12T13:48:27.241Z,102491.72
2023-02-12T13:51:09.338Z,102486.53
2023-02-12T13:54:00.289Z,102480.53
2023-02-12T13:56:33.757Z,102484.66
2023-02-12T13:59:03.080Z,102491.31
2023-02-12T14:01:49.776Z,102485.94
2023-02-12T14:04:19.789Z,102484.72
2023-02-12T14:07:01.163Z,102480.88
2023-02-12T14:09:34.084Z,102476.53
2023-02-12T14:12:04.171Z,102481.81
2023-02-12T14:14:41.663Z,102480.28
2023-02-12T14:17:30.851Z,102479.53
2023-02-12T14:20:25.098Z,102479.78
2023-02-12T14:22:51.661Z,102489.13
2023-02-12T14:25:24.480Z,102489.19
2023-02-12T14:28:09.560Z,102493.97
2023-02-12T14:30:40.237Z,102503.75
2023-02-12T14:33:07.078Z,102497.63
2023-02-12T14:35:43.995Z,102500.91
2023-02-12T14:38:17.778Z,102496.31
2023-02-12T14:40:52.567Z,102498.03
2023-02-12T14:43:31.684Z,102503.03
2023-02-12T14:46:20.508Z,102502.19
2023-02-12T14:49:04.927Z,102499.72
2023-02-12T14:51:53.796Z,102505.53
2023-02-12T14:54:32.841Z,102499.97
2023-02-12T14:57:05.818Z,102498.06
2023-02-12T14:59:39.104Z,102499.97
2023-02-12T15:02:08.062Z,102505.63
2023-02-12T15:04:38.219Z,102509.59
2023-02-12T15:07:13.000Z,102513.84
2023-02-12T15:09:47.856Z,102515.94
2023-02-12T15:12:20.834Z,102513.22
2023-02-12T15:15:13.212Z,102520.31
2023-02-12T15:17:44.324Z,102527.91
2023-02-12T15:20:23.737Z,102534.31
2023-02-12T15:22:50.753Z,102534.13
2023-02-12T15:25:28.220Z,102547.97
2023-02-12T15:28:01.920Z,102548.94
2023-02-12T15:30:32.374Z,102543.41
2023-02-12T15:33:03.187Z,102544.13
2023-02-12T15:35:32.519Z,102538.78
2023-02-12T15:38:01.168Z,102537.06
2023-02-12T15:40:31.902Z,102535.25
2023-02-12T15:43:06.081Z,102538.94
2023-02-12T15:45:35.596Z,102545.38
2023-02-12T15:48:23.356Z,102543.53
2023-02-12T15:50:55.855Z,102545.28
2023-02-12T15:53:24.575Z,102544.47
2023-02-12T15:55:52.126Z,102548.91
2023-02-12T15:58:28.959Z,102540.72
2023-02-12T16:01:01.306Z,102543.75
2023-02-12T16:03:37.232Z,102553.69
2023-02-12T16:06:13.392Z,102551.13
2023-02-12T16:08:42.389Z,102551.03
2023-02-12T16:11:16.502Z,102552.69
2023-02-12T16:13:47.178Z,102559.16
2023-02-12T16:16:13.761Z,102566.44
2023-02-12T16:18:42.068Z,102558.16
2023-02-12T16:21:22.645Z,102568.19
2023-02-12T16:23:51.654Z,102566.44
2023-02-12T16:26:23.598Z,102563.78
2023-02-12T16:28:54.474Z,102560.16
2023-02-12T16:31:24.622Z,102552.78
2023-02-12T16:33:56.044Z,102563.91
2023-02-12T16:36:22.766Z,102559.25
2023-02-12T16:38:55.470Z,102557.69
2023-02-12T16:41:24.241Z,102562.06
2023-02-12T16:43:59.973Z,102559.31
2023-02-12T16:46:28.960Z,102566.66
2023-02-12T16:48:58.930Z,102560.50
2023-02-12T16:51:27.446Z,102564.13
2023-02-12T16:54:04.785Z,102563.34
2023-02-12T16:56:38.589Z,102568.69
2023-02-12T16:59:05.635Z,102568.75
2023-02-12T17:01:36.920Z,102574.06
2023-02-12T17:04:14.362Z,102570.47
2023-02-12T17:06:41.117Z,102575.22
2023-02-12T17:09:07.805Z,102579.84
2023-02-12T17:11:34.653Z,102567.13
2023-02-12T17:14:01.326Z,102581.59
2023-02-12T17:16:31.271Z,102580.78
2023-02-12T17:19:00.028Z,102569.00
2023-02-12T17:21:40.371Z,102557.25
2023-02-12T17:24:14.424Z,102563.53
2023-02-12T17:26:41.157Z,102571.84
2023-02-12T17:29:07.843Z,102573.72
2023-02-12T17:31:36.579Z,102586.56
2023-02-12T17:34:04.711Z,102583.69
2023-02-12T17:36:31.457Z,102586.47
2023-02-12T17:38:58.184Z,102587.41
2023-02-12T17:41:24.868Z,102583.78
2023-02-12T17:43:51.627Z,102583.69
2023-02-12T17:46:21.848Z,102584.63
2023-02-12T17:48:48.638Z,102588.28
2023-02-12T17:51:15.645Z,102601.97
2023-02-12T17:53:42.937Z,102596.66
2023-02-12T17:56:15.277Z,102593.75
2023-02-12T17:58:42.890Z,102596.69
2023-02-12T18:01:12.399Z,102596.75
2023-02-12T18:03:39.572Z,102591.88
2023-02-12T18:06:07.333Z,102596.66
2023-02-12T18:08:34.625Z,102588.44
2023-02-12T18:11:11.475Z,102592.19
2023-02-12T18:13:39.396Z,102599.34
2023-02-12T18:16:10.358Z,102593.13
2023-02-12T18:18:38.418Z,102599.66
2023-02-12T18:21:13.636Z,102597.63
2023-02-12T18:23:40.760Z,102597.53
2023-02-12T18:26:15.863Z,102600.50
2023-02-12T18:28:42.815Z,102604.13
2023-02-12T18:31:10.627Z,102608.63
2023-02-12T18:33:38.941Z,102604.03
2023-02-12T18:36:08.980Z,102602.25
2023-02-12T18:38:37.852Z,102599.56
2023-02-12T18:41:14.868Z,102603.09
2023-02-12T18:43:43.446Z,102604.16
2023-02-12T18:46:15.412Z,102605.91
2023-02-12T18:48:43.469Z,102607.78
2023-02-12T18:51:14.131Z,102599.69
2023-02-12T18:53:40.930Z,102603.31
2023-02-12T18:56:09.609Z,102599.88
2023-02-12T18:58:37.244Z,102597.16
2023-02-12T19:01:15.835Z,102596.22
2023-02-12T19:03:43.350Z,102590.06
2023-02-12T19:06:10.622Z,102594.56
2023-02-12T19:08:37.468Z,102589.06
2023-02-12T19:11:07.054Z,102594.44
2023-02-12T19:13:33.786Z,102597.91
2023-02-12T19:16:06.465Z,102589.88
2023-02-12T19:18:33.218Z,102592.81
2023-02-12T19:20:59.930Z,102597.19
2023-02-12T19:23:26.584Z,102593.72
2023-02-12T19:25:53.283Z,102583.75
2023-02-12T19:28:19.999Z,102582.81
2023-02-12T19:30:46.770Z,102584.00
2023-02-12T19:33:13.484Z,102583.06
2023-02-12T19:35:42.247Z,102579.34
2023-02-12T19:38:09.053Z,102577.50
2023-02-12T19:40:35.787Z,102575.88
2023-02-12T19:43:02.490Z,102580.31
2023-02-12T19:45:29.138Z,102577.75
2023-02-12T19:47:55.881Z,102587.69
2023-02-12T19:50:22.934Z,102577.84
2023-02-12T19:52:49.756Z,102573.19
2023-02-12T19:55:16.522Z,102584.00
2023-02-12T19:57:43.221Z,102582.41
2023-02-12T20:00:10.593Z,102581.19
2023-02-12T20:02:37.385Z,102582.19
2023-02-12T20:05:04.229Z,102591.13
2023-02-12T20:07:31.220Z,102594.88
2023-02-12T20:09:57.973Z,102596.66
2023-02-12T20:12:25.067Z,102595.81
2023-02-12T20:14:55.166Z,102586.88
2023-02-12T20:17:21.871Z,102599.66
2023-02-12T20:19:48.658Z,102604.03
2023-02-12T20:22:15.328Z,102597.69
2023-02-12T20:24:42.086Z,102599.66
2023-02-12T20:27:08.847Z,102604.09
2023-02-12T20:29:35.594Z,102615.94
2023-02-12T20:32:02.300Z,102619.50
2023-02-12T20:34:30.404Z,102625.00
2023-02-12T20:36:58.208Z,102632.19
2023-02-12T20:39:25.181Z,102631.22
2023-02-12T20:41:52.236Z,102629.34
2023-02-12T20:44:20.626Z,102641.13
2023-02-12T20:46:52.409Z,102642.97
2023-02-12T20:49:22.576Z,102646.53
2023-02-12T20:51:50.258Z,102653.63
2023-02-12T20:54:17.422Z,102650.88
2023-02-12T20:56:44.310Z,102655.44
2023-02-12T20:59:12.097Z,102666.47
2023-02-12T21:01:40.829Z,102668.16
2023-02-12T21:04:12.150Z,102671.75
2023-02-12T21:06:40.381Z,102675.31
2023-02-12T21:09:11.822Z,102675.28
2023-02-12T21:11:40.990Z,102682.56
2023-02-12T21:14:21.166Z,102693.28
2023-02-12T21:16:48.921Z,102695.84
2023-02-12T21:19:16.024Z,102701.38
2023-02-12T21:21:45.198Z,102708.69
2023-02-12T21:24:16.672Z,102716.69
2023-02-12T21:26:43.663Z,102719.38
2023-02-12T21:29:10.464Z,102717.69
2023-02-12T21:31:42.398Z,102713.97
2023-02-12T21:34:12.736Z,102727.50
2023-02-12T21:36:41.417Z,102735.78
2023-02-12T21:39:11.583Z,102738.38
2023-02-12T21:41:40.797Z,102739.31
2023-02-12T21:44:16.996Z,102742.03
2023-02-12T21:46:44.699Z,102750.13
2023-02-12T21:49:23.258Z,102846.50
2023-02-12T21:51:50.648Z,102857.38
2023-02-12T21:54:17.413Z,102855.59
2023-02-12T21:56:45.868Z,102885.25
2023-02-12T21:59:14.111Z,102879.00
2023-02-12T22:01:50.315Z,102893.44
2023-02-12T22:04:18.381Z,102900.63
2023-02-12T22:06:47.445Z,102904.19
2023-02-12T22:09:16.637Z,102900.53
2023-02-12T22:11:44.372Z,102912.44
2023-02-12T22:14:16.639Z,102919.69
2023-02-12T22:16:44.081Z,102915.09
2023-02-12T22:19:11.263Z,102923.16
2023-02-12T22:21:40.205Z,102935.75
2023-02-12T22:24:09.531Z,102928.72
2023-02-12T22:26:36.657Z,102940.47
2023-02-12T22:29:07.018Z,102946.78
2023-02-12T22:31:36.524Z,102956.53
2023-02-12T22:34:06.523Z,102953.13
2023-02-12T22:36:35.778Z,102969.22
2023-02-12T22:39:02.522Z,102974.66
2023-02-12T22:41:29.344Z,102982.03
2023-02-12T22:44:01.714Z,102993.59
2023-02-12T22:46:28.634Z,102999.78
2023-02-12T22:48:55.340Z,103008.81
2023-02-12T22:51:27.049Z,103011.66
2023-02-12T22:53:54.647Z,103019.78
2023-02-12T22:56:21.667Z,103026.97
2023-02-12T22:58:48.379Z,103037.81
2023-02-12T23:01:17.980Z,103040.41
2023-02-12T23:03:45.523Z,103047.56
2023-02-12T23:06:15.362Z,103045.72
2023-02-12T23:08:42.913Z,103061.09
2023-02-12T23:11:10.798Z,103062.00
2023-02-12T23:13:37.866Z,103065.56
2023-02-12T23:16:05.212Z,103068.28
2023-02-12T23:18:32.152Z,103072.81
2023-02-12T23:20:59.085Z,103080.16
2023-02-12T23:23:26.177Z,103147.50
2023-02-12T23:25:54.493Z,103154.00
2023-02-12T23:28:22.341Z,103153.03
2023-02-12T23:30:50.540Z,103160.22
2023-02-12T23:33:17.880Z,103158.44
2023-02-12T23:35:45.395Z,103180.13
2023-02-12T23:38:12.513Z,103179.13
2023-02-12T23:40:40.527Z,103174.78
2023-02-12T23:43:07.614Z,103181.09
2023-02-12T23:45:34.602Z,103187.38
2023-02-12T23:48:01.287Z,103182.75
2023-02-12T23:50:27.975Z,103192.72
2023-02-12T23:52:54.665Z,103191.91
2023-02-12T23:55:21.634Z,103196.44
2023-02-12T23:57:49.712Z,103203.59
